Skip Navigation LinksHome page > Weather > Current weather Skip Navigation Links

Current Weather

The William B Hartsfield Atlanta Intl, Atlanta

For information only: do not use for flight planning or navigation.
Latest weather
Observation time Friday, February 28, 2020 5:52 AM EST
Local time Friday, February 28, 2020 6:09 AM EST
Flight conditions Visual Meteorological Conditions
Winds
Wind direction Southwest (230°)
Wind speed 6 mph
Visibility 10 mi.
Sky condition
Ceiling unlimited
Cloud layer scattered clouds 8,000 ft.
Temperature 34°F
Dewpoint 22°F
Altimeter 30.16 in.Hg
Derived measurements
Relative humidity 61%
Wind chill 29°F
Density altitude -879 ft.
Sea-level pressure 30.17 in.Hg
Remarks
Automated weather observing station with precipitation discriminator.
METAR KATL 281052Z 23005KT 10SM SCT080 01/M06 A3016 RMK AO2 SLP218 T00111056

Settings

Location code

InnerDrive.Weather 4.0.6770.0 Release CLR 4.0.30319.42000
Copyright ©2018 Inner Drive Technology. All rights reserved. Portions Copyright ©1986-2018 David Braverman.

Find weather

Site navigation


Skip Navigation Links

Place info

Page info

PayPal - The safer, easier way to pay online!

Return home.

Copyright ©2020 Inner Drive Technology. Purveyors of fine, hand-crafted computer software. Page printed 2020-02-28T11:09:48 UTC.